sensor_id;sensor_type;location;lat;lon;timestamp;P1;durP1;ratioP1;P2;durP2;ratioP2
5403;SDS011;2725;51.054;6.948;2022-09-03T00:00:10;1.1;;;1.0;;
5403;SDS011;2725;51.054;6.948;2022-09-03T00:05:05;1.1;;;1.0;;
5403;SDS011;2725;51.054;6.948;2022-09-03T00:10:03;1.1;;;1.0;;
5403;SDS011;2725;51.054;6.948;2022-09-03T00:15:04;1.1;;;1.0;;
5403;SDS011;2725;51.054;6.948;2022-09-03T00:20:05;1.1;;;1.0;;
5403;SDS011;2725;51.054;6.948;2022-09-03T00:25:03;1.1;;;1.0;;
5403;SDS011;2725;51.054;6.948;2022-09-03T00:30:04;1.1;;;1.0;;
5403;SDS011;2725;51.054;6.948;2022-09-03T00:35:02;1.1;;;1.0;;
5403;SDS011;2725;51.054;6.948;2022-09-03T00:40:01;1.1;;;1.0;;
5403;SDS011;2725;51.054;6.948;2022-09-03T00:45:07;1.1;;;1.0;;
5403;SDS011;2725;51.054;6.948;2022-09-03T00:50:06;1.1;;;1.0;;
5403;SDS011;2725;51.054;6.948;2022-09-03T00:55:08;1.1;;;1.0;;
5403;SDS011;2725;51.054;6.948;2022-09-03T01:00:08;1.1;;;1.0;;
5403;SDS011;2725;51.054;6.948;2022-09-03T01:05:10;1.1;;;1.0;;
5403;SDS011;2725;51.054;6.948;2022-09-03T01:10:06;1.1;;;1.0;;
5403;SDS011;2725;51.054;6.948;2022-09-03T01:20:11;1.1;;;1.0;;
5403;SDS011;2725;51.054;6.948;2022-09-03T01:25:11;1.1;;;1.0;;
5403;SDS011;2725;51.054;6.948;2022-09-03T01:30:04;1.1;;;1.0;;
5403;SDS011;2725;51.054;6.948;2022-09-03T01:35:06;1.1;;;1.0;;
5403;SDS011;2725;51.054;6.948;2022-09-03T01:40:08;1.1;;;1.0;;
5403;SDS011;2725;51.054;6.948;2022-09-03T01:50:06;1.1;;;1.0;;
5403;SDS011;2725;51.054;6.948;2022-09-03T01:55:08;1.1;;;1.0;;
5403;SDS011;2725;51.054;6.948;2022-09-03T02:00:05;1.1;;;1.0;;
5403;SDS011;2725;51.054;6.948;2022-09-03T02:05:03;1.1;;;1.0;;
5403;SDS011;2725;51.054;6.948;2022-09-03T02:10:03;1.1;;;1.0;;
5403;SDS011;2725;51.054;6.948;2022-09-03T02:15:04;1.1;;;1.0;;
5403;SDS011;2725;51.054;6.948;2022-09-03T02:20:02;1.1;;;1.0;;
5403;SDS011;2725;51.054;6.948;2022-09-03T02:25:02;1.1;;;1.0;;
5403;SDS011;2725;51.054;6.948;2022-09-03T02:30:01;1.1;;;1.0;;
5403;SDS011;2725;51.054;6.948;2022-09-03T02:35:01;1.1;;;1.0;;
5403;SDS011;2725;51.054;6.948;2022-09-03T02:40:01;1.1;;;1.0;;
5403;SDS011;2725;51.054;6.948;2022-09-03T02:45:12;1.1;;;1.0;;
5403;SDS011;2725;51.054;6.948;2022-09-03T02:50:01;1.1;;;1.0;;
5403;SDS011;2725;51.054;6.948;2022-09-03T02:55:02;1.1;;;1.0;;
5403;SDS011;2725;51.054;6.948;2022-09-03T03:00:03;1.1;;;1.0;;
5403;SDS011;2725;51.054;6.948;2022-09-03T03:05:01;1.1;;;1.0;;
5403;SDS011;2725;51.054;6.948;2022-09-03T03:10:02;1.1;;;1.0;;
5403;SDS011;2725;51.054;6.948;2022-09-03T03:15:01;1.1;;;1.0;;
5403;SDS011;2725;51.054;6.948;2022-09-03T03:20:01;1.1;;;1.0;;
5403;SDS011;2725;51.054;6.948;2022-09-03T03:25:01;1.1;;;1.0;;
5403;SDS011;2725;51.054;6.948;2022-09-03T03:30:02;1.1;;;1.0;;
5403;SDS011;2725;51.054;6.948;2022-09-03T03:35:01;1.1;;;1.0;;
5403;SDS011;2725;51.054;6.948;2022-09-03T03:40:02;1.1;;;1.0;;
5403;SDS011;2725;51.054;6.948;2022-09-03T03:45:02;1.1;;;1.0;;
5403;SDS011;2725;51.054;6.948;2022-09-03T03:50:02;1.1;;;1.0;;
5403;SDS011;2725;51.054;6.948;2022-09-03T03:55:01;1.1;;;1.0;;
5403;SDS011;2725;51.054;6.948;2022-09-03T04:00:01;1.1;;;1.0;;
5403;SDS011;2725;51.054;6.948;2022-09-03T04:05:01;1.1;;;1.0;;
5403;SDS011;2725;51.054;6.948;2022-09-03T04:10:01;1.1;;;1.0;;
5403;SDS011;2725;51.054;6.948;2022-09-03T04:15:01;1.1;;;1.0;;
5403;SDS011;2725;51.054;6.948;2022-09-03T04:20:01;1.1;;;1.0;;
5403;SDS011;2725;51.054;6.948;2022-09-03T04:25:01;1.1;;;1.0;;
5403;SDS011;2725;51.054;6.948;2022-09-03T04:30:01;1.1;;;1.0;;
5403;SDS011;2725;51.054;6.948;2022-09-03T04:35:01;1.1;;;1.0;;
5403;SDS011;2725;51.054;6.948;2022-09-03T04:40:01;1.1;;;1.0;;
5403;SDS011;2725;51.054;6.948;2022-09-03T04:45:01;1.1;;;1.0;;
5403;SDS011;2725;51.054;6.948;2022-09-03T04:50:01;1.1;;;1.0;;
5403;SDS011;2725;51.054;6.948;2022-09-03T04:55:02;1.1;;;1.0;;
5403;SDS011;2725;51.054;6.948;2022-09-03T05:00:02;1.1;;;1.0;;
5403;SDS011;2725;51.054;6.948;2022-09-03T05:05:03;1.1;;;1.0;;
5403;SDS011;2725;51.054;6.948;2022-09-03T05:10:01;1.1;;;1.0;;
5403;SDS011;2725;51.054;6.948;2022-09-03T05:15:01;1.1;;;1.0;;
5403;SDS011;2725;51.054;6.948;2022-09-03T05:20:02;1.1;;;1.0;;
5403;SDS011;2725;51.054;6.948;2022-09-03T05:25:02;1.1;;;1.0;;
5403;SDS011;2725;51.054;6.948;2022-09-03T05:30:01;1.1;;;1.0;;
5403;SDS011;2725;51.054;6.948;2022-09-03T05:35:01;1.1;;;1.0;;
5403;SDS011;2725;51.054;6.948;2022-09-03T05:40:02;1.1;;;1.0;;
5403;SDS011;2725;51.054;6.948;2022-09-03T05:45:01;1.1;;;1.0;;
5403;SDS011;2725;51.054;6.948;2022-09-03T05:50:01;1.1;;;1.0;;
5403;SDS011;2725;51.054;6.948;2022-09-03T05:55:01;1.1;;;1.0;;
5403;SDS011;2725;51.054;6.948;2022-09-03T06:00:02;1.1;;;1.0;;
5403;SDS011;2725;51.054;6.948;2022-09-03T06:05:02;1.1;;;1.0;;
5403;SDS011;2725;51.054;6.948;2022-09-03T06:10:02;1.1;;;1.0;;
5403;SDS011;2725;51.054;6.948;2022-09-03T06:15:02;1.1;;;1.0;;
5403;SDS011;2725;51.054;6.948;2022-09-03T06:20:02;1.1;;;1.0;;
5403;SDS011;2725;51.054;6.948;2022-09-03T06:25:01;1.1;;;1.0;;
5403;SDS011;2725;51.054;6.948;2022-09-03T06:30:01;1.1;;;1.0;;
5403;SDS011;2725;51.054;6.948;2022-09-03T06:35:01;1.1;;;1.0;;
5403;SDS011;2725;51.054;6.948;2022-09-03T06:40:01;1.1;;;1.0;;
5403;SDS011;2725;51.054;6.948;2022-09-03T06:45:01;1.1;;;1.0;;
5403;SDS011;2725;51.054;6.948;2022-09-03T06:50:01;1.1;;;1.0;;
5403;SDS011;2725;51.054;6.948;2022-09-03T06:55:01;1.1;;;1.0;;
5403;SDS011;2725;51.054;6.948;2022-09-03T07:00:02;1.1;;;1.0;;
5403;SDS011;2725;51.054;6.948;2022-09-03T07:05:01;1.1;;;1.0;;
5403;SDS011;2725;51.054;6.948;2022-09-03T07:10:01;1.1;;;1.0;;
5403;SDS011;2725;51.054;6.948;2022-09-03T07:15:01;1.1;;;1.0;;
5403;SDS011;2725;51.054;6.948;2022-09-03T07:20:02;1.1;;;1.0;;
5403;SDS011;2725;51.054;6.948;2022-09-03T07:25:01;1.1;;;1.0;;
5403;SDS011;2725;51.054;6.948;2022-09-03T07:30:01;1.1;;;1.0;;
5403;SDS011;2725;51.054;6.948;2022-09-03T07:35:02;1.1;;;1.0;;
5403;SDS011;2725;51.054;6.948;2022-09-03T07:40:01;1.1;;;1.0;;
5403;SDS011;2725;51.054;6.948;2022-09-03T07:45:01;1.4;;;1.0;;
5403;SDS011;2725;51.054;6.948;2022-09-03T07:50:02;1.4;;;1.0;;
5403;SDS011;2725;51.054;6.948;2022-09-03T07:55:01;1.4;;;1.0;;
5403;SDS011;2725;51.054;6.948;2022-09-03T08:00:01;1.4;;;1.0;;
5403;SDS011;2725;51.054;6.948;2022-09-03T08:05:02;1.4;;;1.0;;
5403;SDS011;2725;51.054;6.948;2022-09-03T08:10:01;1.4;;;1.0;;
5403;SDS011;2725;51.054;6.948;2022-09-03T08:15:01;1.4;;;1.0;;
5403;SDS011;2725;51.054;6.948;2022-09-03T08:20:02;1.4;;;1.0;;
5403;SDS011;2725;51.054;6.948;2022-09-03T08:25:02;2.0;;;1.0;;
5403;SDS011;2725;51.054;6.948;2022-09-03T08:30:02;2.0;;;1.0;;
5403;SDS011;2725;51.054;6.948;2022-09-03T08:35:01;4.0;;;1.2;;
5403;SDS011;2725;51.054;6.948;2022-09-03T08:40:02;4.0;;;1.2;;
5403;SDS011;2725;51.054;6.948;2022-09-03T08:45:02;4.0;;;1.2;;
5403;SDS011;2725;51.054;6.948;2022-09-03T08:50:35;4.0;;;1.2;;
5403;SDS011;2725;51.054;6.948;2022-09-03T08:56:07;4.0;;;1.2;;
5403;SDS011;2725;51.054;6.948;2022-09-03T09:00:02;4.0;;;1.2;;
5403;SDS011;2725;51.054;6.948;2022-09-03T09:05:04;4.0;;;1.2;;
5403;SDS011;2725;51.054;6.948;2022-09-03T09:10:04;4.0;;;1.2;;
5403;SDS011;2725;51.054;6.948;2022-09-03T09:15:06;4.0;;;1.2;;
5403;SDS011;2725;51.054;6.948;2022-09-03T09:21:07;4.0;;;1.2;;
5403;SDS011;2725;51.054;6.948;2022-09-03T09:25:03;4.0;;;1.2;;
5403;SDS011;2725;51.054;6.948;2022-09-03T09:30:03;4.0;;;1.2;;
5403;SDS011;2725;51.054;6.948;2022-09-03T09:35:02;4.0;;;1.2;;
5403;SDS011;2725;51.054;6.948;2022-09-03T09:40:02;4.0;;;1.2;;
5403;SDS011;2725;51.054;6.948;2022-09-03T09:45:09;4.0;;;1.2;;
5403;SDS011;2725;51.054;6.948;2022-09-03T09:50:02;4.0;;;1.2;;
5403;SDS011;2725;51.054;6.948;2022-09-03T09:55:06;2.2;;;1.1;;
5403;SDS011;2725;51.054;6.948;2022-09-03T10:00:05;2.2;;;1.1;;
5403;SDS011;2725;51.054;6.948;2022-09-03T10:05:10;2.4;;;1.1;;
5403;SDS011;2725;51.054;6.948;2022-09-03T10:10:06;2.4;;;1.1;;
5403;SDS011;2725;51.054;6.948;2022-09-03T10:15:08;1.3;;;1.0;;
5403;SDS011;2725;51.054;6.948;2022-09-03T10:20:06;1.3;;;1.0;;
5403;SDS011;2725;51.054;6.948;2022-09-03T10:25:01;2.4;;;1.2;;
5403;SDS011;2725;51.054;6.948;2022-09-03T10:30:02;2.4;;;1.2;;
5403;SDS011;2725;51.054;6.948;2022-09-03T10:35:05;1.9;;;1.1;;
5403;SDS011;2725;51.054;6.948;2022-09-03T10:40:24;1.9;;;1.1;;
5403;SDS011;2725;51.054;6.948;2022-09-03T10:45:07;2.5;;;1.1;;
5403;SDS011;2725;51.054;6.948;2022-09-03T10:50:04;2.5;;;1.1;;
5403;SDS011;2725;51.054;6.948;2022-09-03T10:55:07;2.5;;;1.1;;
5403;SDS011;2725;51.054;6.948;2022-09-03T11:00:09;2.5;;;1.1;;
5403;SDS011;2725;51.054;6.948;2022-09-03T11:05:04;1.9;;;1.1;;
5403;SDS011;2725;51.054;6.948;2022-09-03T11:10:06;1.9;;;1.1;;
5403;SDS011;2725;51.054;6.948;2022-09-03T11:15:03;2.5;;;1.1;;
5403;SDS011;2725;51.054;6.948;2022-09-03T11:20:19;2.5;;;1.1;;
5403;SDS011;2725;51.054;6.948;2022-09-03T11:25:01;1.8;;;1.2;;
5403;SDS011;2725;51.054;6.948;2022-09-03T11:30:03;1.8;;;1.2;;
5403;SDS011;2725;51.054;6.948;2022-09-03T11:35:11;2.0;;;1.4;;
5403;SDS011;2725;51.054;6.948;2022-09-03T11:40:04;2.0;;;1.4;;
5403;SDS011;2725;51.054;6.948;2022-09-03T11:45:35;1.7;;;1.2;;
5403;SDS011;2725;51.054;6.948;2022-09-03T11:50:07;1.7;;;1.2;;
5403;SDS011;2725;51.054;6.948;2022-09-03T11:55:03;2.0;;;1.3;;
5403;SDS011;2725;51.054;6.948;2022-09-03T12:00:09;2.0;;;1.3;;
5403;SDS011;2725;51.054;6.948;2022-09-03T12:05:48;1.6;;;1.1;;
5403;SDS011;2725;51.054;6.948;2022-09-03T12:10:04;1.6;;;1.1;;
5403;SDS011;2725;51.054;6.948;2022-09-03T12:15:10;1.6;;;1.1;;
5403;SDS011;2725;51.054;6.948;2022-09-03T12:20:01;1.6;;;1.1;;
5403;SDS011;2725;51.054;6.948;2022-09-03T12:25:07;1.3;;;1.2;;
5403;SDS011;2725;51.054;6.948;2022-09-03T12:30:02;1.3;;;1.2;;
5403;SDS011;2725;51.054;6.948;2022-09-03T12:35:15;1.6;;;1.3;;
5403;SDS011;2725;51.054;6.948;2022-09-03T12:40:01;1.6;;;1.3;;
5403;SDS011;2725;51.054;6.948;2022-09-03T12:45:05;1.7;;;1.4;;
5403;SDS011;2725;51.054;6.948;2022-09-03T12:50:04;1.7;;;1.4;;
5403;SDS011;2725;51.054;6.948;2022-09-03T12:55:03;1.6;;;1.4;;
5403;SDS011;2725;51.054;6.948;2022-09-03T13:00:04;1.6;;;1.4;;
5403;SDS011;2725;51.054;6.948;2022-09-03T13:05:01;1.2;;;1.1;;
5403;SDS011;2725;51.054;6.948;2022-09-03T13:10:04;1.2;;;1.1;;
5403;SDS011;2725;51.054;6.948;2022-09-03T13:15:06;1.2;;;1.1;;
5403;SDS011;2725;51.054;6.948;2022-09-03T13:20:10;1.2;;;1.1;;
5403;SDS011;2725;51.054;6.948;2022-09-03T13:26:16;1.5;;;1.1;;
5403;SDS011;2725;51.054;6.948;2022-09-03T13:31:09;1.5;;;1.1;;
5403;SDS011;2725;51.054;6.948;2022-09-03T13:35:05;1.7;;;1.2;;
5403;SDS011;2725;51.054;6.948;2022-09-03T13:40:41;1.7;;;1.2;;
5403;SDS011;2725;51.054;6.948;2022-09-03T13:45:04;1.7;;;1.1;;
5403;SDS011;2725;51.054;6.948;2022-09-03T13:50:06;1.7;;;1.1;;
5403;SDS011;2725;51.054;6.948;2022-09-03T13:55:06;1.2;;;1.1;;
5403;SDS011;2725;51.054;6.948;2022-09-03T14:00:04;1.2;;;1.1;;
5403;SDS011;2725;51.054;6.948;2022-09-03T14:05:04;4.7;;;1.4;;
5403;SDS011;2725;51.054;6.948;2022-09-03T14:10:20;4.7;;;1.4;;
5403;SDS011;2725;51.054;6.948;2022-09-03T14:15:04;1.5;;;1.2;;
5403;SDS011;2725;51.054;6.948;2022-09-03T14:20:03;1.5;;;1.2;;
5403;SDS011;2725;51.054;6.948;2022-09-03T14:25:03;1.3;;;1.2;;
5403;SDS011;2725;51.054;6.948;2022-09-03T14:30:03;1.3;;;1.2;;
5403;SDS011;2725;51.054;6.948;2022-09-03T14:35:37;1.9;;;1.2;;
5403;SDS011;2725;51.054;6.948;2022-09-03T14:40:04;1.9;;;1.2;;
5403;SDS011;2725;51.054;6.948;2022-09-03T14:45:21;1.7;;;1.3;;
5403;SDS011;2725;51.054;6.948;2022-09-03T14:50:02;1.7;;;1.3;;
5403;SDS011;2725;51.054;6.948;2022-09-03T15:00:04;1.8;;;1.3;;
5403;SDS011;2725;51.054;6.948;2022-09-03T15:05:05;1.5;;;1.3;;
5403;SDS011;2725;51.054;6.948;2022-09-03T15:15:04;2.8;;;1.5;;
5403;SDS011;2725;51.054;6.948;2022-09-03T15:20:10;2.8;;;1.5;;
5403;SDS011;2725;51.054;6.948;2022-09-03T15:25:20;1.4;;;1.2;;
5403;SDS011;2725;51.054;6.948;2022-09-03T15:30:17;1.4;;;1.2;;
5403;SDS011;2725;51.054;6.948;2022-09-03T15:35:08;1.7;;;1.4;;
5403;SDS011;2725;51.054;6.948;2022-09-03T15:40:04;1.7;;;1.4;;
5403;SDS011;2725;51.054;6.948;2022-09-03T15:45:03;1.7;;;1.4;;
5403;SDS011;2725;51.054;6.948;2022-09-03T15:50:06;1.7;;;1.4;;
5403;SDS011;2725;51.054;6.948;2022-09-03T15:55:10;2.8;;;1.5;;
5403;SDS011;2725;51.054;6.948;2022-09-03T16:00:10;2.8;;;1.5;;
5403;SDS011;2725;51.054;6.948;2022-09-03T16:05:04;1.5;;;1.4;;
5403;SDS011;2725;51.054;6.948;2022-09-03T16:10:15;1.5;;;1.4;;
5403;SDS011;2725;51.054;6.948;2022-09-03T16:15:04;1.4;;;1.3;;
5403;SDS011;2725;51.054;6.948;2022-09-03T16:20:13;1.4;;;1.3;;
5403;SDS011;2725;51.054;6.948;2022-09-03T16:25:02;1.3;;;1.2;;
5403;SDS011;2725;51.054;6.948;2022-09-03T16:30:07;1.3;;;1.2;;
5403;SDS011;2725;51.054;6.948;2022-09-03T16:35:14;1.9;;;1.3;;
5403;SDS011;2725;51.054;6.948;2022-09-03T16:40:13;1.9;;;1.3;;
5403;SDS011;2725;51.054;6.948;2022-09-03T16:45:05;1.9;;;1.5;;
5403;SDS011;2725;51.054;6.948;2022-09-03T16:55:05;1.5;;;1.4;;
5403;SDS011;2725;51.054;6.948;2022-09-03T17:00:07;1.5;;;1.4;;
5403;SDS011;2725;51.054;6.948;2022-09-03T17:05:12;1.5;;;1.3;;
5403;SDS011;2725;51.054;6.948;2022-09-03T17:10:09;1.5;;;1.3;;
5403;SDS011;2725;51.054;6.948;2022-09-03T17:15:09;1.5;;;1.3;;
5403;SDS011;2725;51.054;6.948;2022-09-03T17:20:07;1.5;;;1.3;;
5403;SDS011;2725;51.054;6.948;2022-09-03T17:25:01;1.5;;;1.3;;
5403;SDS011;2725;51.054;6.948;2022-09-03T17:30:06;1.5;;;1.3;;
5403;SDS011;2725;51.054;6.948;2022-09-03T17:35:05;2.0;;;1.4;;
5403;SDS011;2725;51.054;6.948;2022-09-03T17:40:06;2.0;;;1.4;;
5403;SDS011;2725;51.054;6.948;2022-09-03T17:45:07;2.1;;;1.3;;
5403;SDS011;2725;51.054;6.948;2022-09-03T17:50:06;2.1;;;1.3;;
5403;SDS011;2725;51.054;6.948;2022-09-03T17:55:10;2.9;;;1.2;;
5403;SDS011;2725;51.054;6.948;2022-09-03T18:00:04;2.9;;;1.2;;
5403;SDS011;2725;51.054;6.948;2022-09-03T18:05:04;1.3;;;1.1;;
5403;SDS011;2725;51.054;6.948;2022-09-03T18:11:10;1.3;;;1.1;;
5403;SDS011;2725;51.054;6.948;2022-09-03T18:15:11;2.4;;;1.4;;
5403;SDS011;2725;51.054;6.948;2022-09-03T18:20:04;2.4;;;1.4;;
5403;SDS011;2725;51.054;6.948;2022-09-03T18:25:01;1.9;;;1.4;;
5403;SDS011;2725;51.054;6.948;2022-09-03T18:30:05;1.9;;;1.4;;
5403;SDS011;2725;51.054;6.948;2022-09-03T18:35:02;2.1;;;1.4;;
5403;SDS011;2725;51.054;6.948;2022-09-03T18:40:02;2.1;;;1.4;;
5403;SDS011;2725;51.054;6.948;2022-09-03T18:45:04;1.4;;;1.3;;
5403;SDS011;2725;51.054;6.948;2022-09-03T18:50:06;1.4;;;1.3;;
5403;SDS011;2725;51.054;6.948;2022-09-03T18:55:07;1.5;;;1.3;;
5403;SDS011;2725;51.054;6.948;2022-09-03T19:00:06;1.5;;;1.3;;
5403;SDS011;2725;51.054;6.948;2022-09-03T19:05:18;1.7;;;1.3;;
5403;SDS011;2725;51.054;6.948;2022-09-03T19:10:02;1.7;;;1.3;;
5403;SDS011;2725;51.054;6.948;2022-09-03T19:15:05;1.8;;;1.3;;
5403;SDS011;2725;51.054;6.948;2022-09-03T19:20:34;1.8;;;1.3;;
5403;SDS011;2725;51.054;6.948;2022-09-03T19:25:03;1.3;;;1.2;;
5403;SDS011;2725;51.054;6.948;2022-09-03T19:30:18;1.3;;;1.2;;
5403;SDS011;2725;51.054;6.948;2022-09-03T19:35:04;1.6;;;1.3;;
5403;SDS011;2725;51.054;6.948;2022-09-03T19:40:07;1.6;;;1.3;;
5403;SDS011;2725;51.054;6.948;2022-09-03T19:45:07;2.3;;;1.3;;
5403;SDS011;2725;51.054;6.948;2022-09-03T19:50:03;2.3;;;1.3;;
5403;SDS011;2725;51.054;6.948;2022-09-03T19:55:01;2.2;;;1.3;;
5403;SDS011;2725;51.054;6.948;2022-09-03T20:00:02;2.2;;;1.3;;
5403;SDS011;2725;51.054;6.948;2022-09-03T20:05:02;1.5;;;1.3;;
5403;SDS011;2725;51.054;6.948;2022-09-03T20:10:03;1.5;;;1.3;;
5403;SDS011;2725;51.054;6.948;2022-09-03T20:15:02;1.7;;;1.4;;
5403;SDS011;2725;51.054;6.948;2022-09-03T20:20:06;1.7;;;1.4;;
5403;SDS011;2725;51.054;6.948;2022-09-03T20:25:06;1.7;;;1.4;;
5403;SDS011;2725;51.054;6.948;2022-09-03T20:30:03;1.7;;;1.4;;
5403;SDS011;2725;51.054;6.948;2022-09-03T20:35:12;2.0;;;1.3;;
5403;SDS011;2725;51.054;6.948;2022-09-03T20:40:07;2.0;;;1.3;;
5403;SDS011;2725;51.054;6.948;2022-09-03T20:45:03;1.3;;;1.2;;
5403;SDS011;2725;51.054;6.948;2022-09-03T20:50:09;1.3;;;1.2;;
5403;SDS011;2725;51.054;6.948;2022-09-03T20:55:03;1.3;;;1.2;;
5403;SDS011;2725;51.054;6.948;2022-09-03T21:00:06;1.3;;;1.2;;
5403;SDS011;2725;51.054;6.948;2022-09-03T21:05:07;2.4;;;1.3;;
5403;SDS011;2725;51.054;6.948;2022-09-03T21:10:21;2.4;;;1.3;;
5403;SDS011;2725;51.054;6.948;2022-09-03T21:15:09;1.7;;;1.4;;
5403;SDS011;2725;51.054;6.948;2022-09-03T21:20:12;1.7;;;1.4;;
5403;SDS011;2725;51.054;6.948;2022-09-03T21:25:03;1.4;;;1.1;;
5403;SDS011;2725;51.054;6.948;2022-09-03T21:30:04;1.4;;;1.1;;
5403;SDS011;2725;51.054;6.948;2022-09-03T21:35:04;2.0;;;1.3;;
5403;SDS011;2725;51.054;6.948;2022-09-03T21:40:02;2.0;;;1.3;;
5403;SDS011;2725;51.054;6.948;2022-09-03T21:45:03;1.9;;;1.3;;
5403;SDS011;2725;51.054;6.948;2022-09-03T21:50:07;1.9;;;1.3;;
5403;SDS011;2725;51.054;6.948;2022-09-03T21:55:02;2.7;;;1.3;;
5403;SDS011;2725;51.054;6.948;2022-09-03T22:00:10;2.7;;;1.3;;
5403;SDS011;2725;51.054;6.948;2022-09-03T22:05:02;1.4;;;1.3;;
5403;SDS011;2725;51.054;6.948;2022-09-03T22:10:07;1.4;;;1.3;;
5403;SDS011;2725;51.054;6.948;2022-09-03T22:15:02;1.3;;;1.2;;
5403;SDS011;2725;51.054;6.948;2022-09-03T22:20:04;1.3;;;1.2;;
5403;SDS011;2725;51.054;6.948;2022-09-03T22:25:04;1.4;;;1.3;;
5403;SDS011;2725;51.054;6.948;2022-09-03T22:30:05;1.4;;;1.3;;
5403;SDS011;2725;51.054;6.948;2022-09-03T22:35:04;1.3;;;1.2;;
5403;SDS011;2725;51.054;6.948;2022-09-03T22:40:05;1.3;;;1.2;;
5403;SDS011;2725;51.054;6.948;2022-09-03T22:45:06;1.4;;;1.3;;
5403;SDS011;2725;51.054;6.948;2022-09-03T22:50:06;1.4;;;1.3;;
5403;SDS011;2725;51.054;6.948;2022-09-03T22:55:11;1.1;;;1.0;;
5403;SDS011;2725;51.054;6.948;2022-09-03T23:00:04;1.1;;;1.0;;
5403;SDS011;2725;51.054;6.948;2022-09-03T23:05:22;1.6;;;1.2;;
5403;SDS011;2725;51.054;6.948;2022-09-03T23:10:04;1.6;;;1.2;;
5403;SDS011;2725;51.054;6.948;2022-09-03T23:15:02;2.2;;;1.6;;
5403;SDS011;2725;51.054;6.948;2022-09-03T23:20:06;2.2;;;1.6;;
5403;SDS011;2725;51.054;6.948;2022-09-03T23:25:07;2.2;;;1.7;;
5403;SDS011;2725;51.054;6.948;2022-09-03T23:30:02;2.2;;;1.7;;
5403;SDS011;2725;51.054;6.948;2022-09-03T23:35:03;1.9;;;1.5;;
5403;SDS011;2725;51.054;6.948;2022-09-03T23:40:07;1.9;;;1.5;;
5403;SDS011;2725;51.054;6.948;2022-09-03T23:50:05;2.1;;;1.4;;
5403;SDS011;2725;51.054;6.948;2022-09-03T23:55:06;1.9;;;1.4;;
